createdAt,value
2019-04-03T00:00:57.354Z,11.50
2019-04-03T00:04:02.697Z,11.40
2019-04-03T00:07:07.820Z,11.40
2019-04-03T00:10:12.209Z,11.30
2019-04-03T00:13:16.606Z,11.20
2019-04-03T00:16:21.249Z,11.10
2019-04-03T00:19:25.544Z,11.10
2019-04-03T00:22:30.044Z,11.10
2019-04-03T00:25:36.045Z,11.10
2019-04-03T00:28:40.276Z,11.10
2019-04-03T00:31:44.542Z,11.00
2019-04-03T00:34:48.943Z,11.00
2019-04-03T00:37:53.885Z,11.00
2019-04-03T00:40:58.379Z,10.90
2019-04-03T00:44:03.322Z,10.90
2019-04-03T00:47:07.684Z,10.80
2019-04-03T00:50:12.106Z,10.80
2019-04-03T00:53:16.411Z,10.80
2019-04-03T00:56:20.746Z,10.60
2019-04-03T00:59:26.383Z,10.70
2019-04-03T01:02:31.138Z,10.80
2019-04-03T01:05:35.530Z,10.70
2019-04-03T01:08:39.838Z,10.60
2019-04-03T01:11:44.588Z,10.60
2019-04-03T01:14:49.324Z,10.50
2019-04-03T01:17:54.036Z,10.50
2019-04-03T01:20:58.745Z,10.50
2019-04-03T01:24:03.072Z,10.40
2019-04-03T01:27:07.547Z,10.30
2019-04-03T01:30:14.020Z,10.20
2019-04-03T01:33:18.240Z,10.20
2019-04-03T01:36:22.930Z,10.00
2019-04-03T01:39:27.365Z,9.90
2019-04-03T01:42:32.084Z,10.10
2019-04-03T01:45:36.411Z,10.10
2019-04-03T01:48:41.259Z,10.30
2019-04-03T01:51:45.624Z,10.30
2019-04-03T01:54:50.182Z,10.30
2019-04-03T01:57:54.516Z,10.40
2019-04-03T02:00:59.023Z,10.50
2019-04-03T02:04:03.404Z,10.50
2019-04-03T02:07:08.043Z,10.50
2019-04-03T02:10:17.840Z,10.50
2019-04-03T02:13:22.599Z,10.60
2019-04-03T02:16:27.493Z,10.70
2019-04-03T02:19:31.842Z,10.60
2019-04-03T02:22:36.196Z,10.60
2019-04-03T02:25:40.567Z,10.80
2019-04-03T02:28:45.521Z,10.70
2019-04-03T02:31:52.715Z,10.60
2019-04-03T02:34:55.892Z,10.70
2019-04-03T02:38:00.588Z,10.70
2019-04-03T02:41:05.534Z,10.70
2019-04-03T02:44:10.198Z,10.80
2019-04-03T02:47:15.204Z,10.70
2019-04-03T02:50:25.521Z,10.70
2019-04-03T02:53:31.329Z,10.70
2019-04-03T02:56:39.667Z,10.60
2019-04-03T02:59:44.375Z,10.50
2019-04-03T03:02:48.878Z,10.50
2019-04-03T03:05:53.242Z,10.50
2019-04-03T03:08:58.562Z,10.40
2019-04-03T03:12:03.868Z,10.40
2019-04-03T03:15:11.193Z,10.40
2019-04-03T03:18:14.765Z,10.40
2019-04-03T03:21:20.508Z,10.40
2019-04-03T03:24:28.398Z,10.30
2019-04-03T03:27:31.165Z,10.40
2019-04-03T03:30:45.506Z,10.40
2019-04-03T03:33:43.595Z,10.30
2019-04-03T03:36:48.997Z,10.30
2019-04-03T03:39:53.797Z,10.40
2019-04-03T03:43:05.123Z,10.30
2019-04-03T03:46:11.381Z,10.40
2019-04-03T03:49:17.817Z,10.40
2019-04-03T03:52:22.324Z,10.40
2019-04-03T03:55:26.979Z,10.40
2019-04-03T03:58:31.603Z,10.40
2019-04-03T04:01:36.154Z,10.40
2019-04-03T04:04:41.275Z,10.30
2019-04-03T04:07:45.822Z,10.30
2019-04-03T04:10:52.299Z,10.30
2019-04-03T04:13:56.815Z,10.20
2019-04-03T04:17:01.830Z,10.20
2019-04-03T04:20:07.456Z,10.00
2019-04-03T04:23:12.071Z,10.00
2019-04-03T04:26:17.069Z,10.00
2019-04-03T04:29:24.231Z,10.00
2019-04-03T04:32:28.555Z,9.90
2019-04-03T04:35:32.884Z,9.80
2019-04-03T04:38:37.456Z,9.70
2019-04-03T04:41:42.551Z,9.70
2019-04-03T04:44:47.314Z,9.60
2019-04-03T04:47:51.615Z,9.70
2019-04-03T04:50:56.167Z,9.60
2019-04-03T04:54:01.458Z,9.70
2019-04-03T04:57:08.265Z,9.70
2019-04-03T05:00:15.114Z,9.70
2019-04-03T05:03:21.132Z,9.70
2019-04-03T05:06:28.606Z,9.70
2019-04-03T05:09:34.348Z,9.70
2019-04-03T05:12:45.312Z,9.70
2019-04-03T05:15:49.643Z,9.80
2019-04-03T05:18:54.029Z,9.80
2019-04-03T05:21:58.334Z,9.80
2019-04-03T05:25:02.848Z,9.90
2019-04-03T05:28:07.356Z,9.90
2019-04-03T05:31:12.579Z,10.00
2019-04-03T05:34:17.234Z,10.00
2019-04-03T05:37:21.551Z,10.20
2019-04-03T05:40:26.565Z,10.20
2019-04-03T05:43:31.512Z,10.30
2019-04-03T05:46:37.620Z,10.50
2019-04-03T05:49:42.394Z,10.70
2019-04-03T05:52:46.984Z,10.80
2019-04-03T05:55:51.413Z,11.00
2019-04-03T05:59:03.702Z,11.00
2019-04-03T06:02:15.083Z,11.20
2019-04-03T06:05:14.846Z,11.40
2019-04-03T06:08:19.958Z,11.50
2019-04-03T06:11:25.021Z,11.70
2019-04-03T06:14:29.714Z,11.80
2019-04-03T06:17:34.054Z,11.90
2019-04-03T06:20:38.572Z,12.00
2019-04-03T06:23:42.988Z,12.10
2019-04-03T06:26:47.714Z,12.30
2019-04-03T06:29:54.763Z,12.40
2019-04-03T06:33:00.907Z,12.40
2019-04-03T06:36:04.598Z,12.40
2019-04-03T06:39:09.763Z,12.40
2019-04-03T06:42:14.364Z,12.50
2019-04-03T06:45:19.062Z,12.50
2019-04-03T06:48:23.424Z,12.60
2019-04-03T06:51:27.855Z,12.70
2019-04-03T06:54:32.406Z,12.90
2019-04-03T06:57:39.077Z,12.90
2019-04-03T07:00:42.757Z,13.10
2019-04-03T07:03:47.467Z,13.20
2019-04-03T07:06:55.203Z,13.20
2019-04-03T07:09:58.478Z,13.30
2019-04-03T07:13:02.883Z,13.30
2019-04-03T07:16:07.584Z,13.30
2019-04-03T07:19:12.334Z,13.40
2019-04-03T07:22:35.092Z,13.40
2019-04-03T07:25:39.307Z,13.50
2019-04-03T07:28:43.639Z,13.60
2019-04-03T07:31:48.419Z,13.90
2019-04-03T07:34:53.439Z,14.20
2019-04-03T07:37:58.087Z,14.50
2019-04-03T07:41:02.929Z,14.90
2019-04-03T07:44:07.349Z,15.50
2019-04-03T07:47:11.944Z,15.90
2019-04-03T07:50:17.245Z,16.40
2019-04-03T07:53:21.871Z,16.70
2019-04-03T07:56:26.989Z,17.00
2019-04-03T07:59:33.477Z,17.30
2019-04-03T08:02:37.681Z,17.40
2019-04-03T08:05:42.070Z,17.70
2019-04-03T08:08:46.515Z,18.20
2019-04-03T08:11:51.295Z,18.70
2019-04-03T08:14:55.782Z,19.30
2019-04-03T08:18:00.377Z,19.90
2019-04-03T08:21:04.841Z,20.70
2019-04-03T08:24:09.509Z,21.20
2019-04-03T08:27:14.049Z,21.70
2019-04-03T08:30:18.542Z,22.00
2019-04-03T08:33:26.599Z,22.40
2019-04-03T08:36:28.894Z,22.90
2019-04-03T08:39:33.906Z,23.40
2019-04-03T08:42:40.672Z,23.60
2019-04-03T08:45:45.618Z,23.80
2019-04-03T08:48:49.943Z,23.90
2019-04-03T08:51:54.699Z,23.80
2019-04-03T08:54:59.642Z,23.70
2019-04-03T08:58:04.031Z,23.60
2019-04-03T09:01:10.718Z,23.50
2019-04-03T09:04:16.752Z,23.30
2019-04-03T09:07:24.516Z,23.20
2019-04-03T09:10:31.609Z,23.10
2019-04-03T09:13:35.319Z,23.00
2019-04-03T09:16:40.097Z,22.90
2019-04-03T09:19:44.874Z,23.10
2019-04-03T09:22:49.248Z,23.20
2019-04-03T09:25:53.554Z,23.10
2019-04-03T09:28:58.150Z,23.20
2019-04-03T09:32:03.082Z,23.40
2019-04-03T09:35:08.159Z,23.80
2019-04-03T09:38:13.040Z,24.30
2019-04-03T09:41:19.208Z,24.90
2019-04-03T09:44:25.465Z,25.50
2019-04-03T09:47:29.808Z,25.90
2019-04-03T09:50:34.216Z,26.10
2019-04-03T09:53:38.802Z,26.40
2019-04-03T09:56:57.210Z,26.70
2019-04-03T09:59:49.196Z,26.90
2019-04-03T10:02:53.532Z,26.90
2019-04-03T10:05:58.192Z,26.70
2019-04-03T10:09:05.870Z,26.60
2019-04-03T10:12:11.068Z,26.40
2019-04-03T10:15:18.341Z,26.50
2019-04-03T10:18:22.921Z,26.50
2019-04-03T10:21:27.556Z,26.30
2019-04-03T10:24:32.253Z,26.10
2019-04-03T10:27:37.101Z,25.80
2019-04-03T10:30:41.880Z,25.40
2019-04-03T10:33:46.875Z,25.00
2019-04-03T10:36:51.140Z,24.70
2019-04-03T10:39:55.524Z,24.50
2019-04-03T10:43:01.023Z,24.20
2019-04-03T10:46:05.794Z,23.90
2019-04-03T10:49:10.624Z,23.60
2019-04-03T10:52:15.208Z,23.30
2019-04-03T10:55:19.620Z,23.00
2019-04-03T10:58:23.948Z,22.80
2019-04-03T11:01:28.896Z,22.60
2019-04-03T11:04:33.600Z,22.40
2019-04-03T11:07:37.999Z,22.20
2019-04-03T11:10:42.397Z,22.00
2019-04-03T11:13:46.732Z,21.90
2019-04-03T11:16:51.069Z,21.70
2019-04-03T11:19:57.423Z,21.80
2019-04-03T11:23:06.800Z,21.70
2019-04-03T11:26:08.435Z,21.70
2019-04-03T11:29:12.873Z,21.60
2019-04-03T11:32:17.192Z,21.50
2019-04-03T11:35:22.412Z,21.50
2019-04-03T11:38:29.267Z,21.50
2019-04-03T11:41:32.939Z,21.40
2019-04-03T11:44:37.540Z,21.30
2019-04-03T11:47:43.244Z,21.30
2019-04-03T11:50:47.916Z,21.30
2019-04-03T11:53:52.218Z,21.20
2019-04-03T11:56:57.179Z,21.20
2019-04-03T12:00:04.376Z,21.10
2019-04-03T12:03:10.827Z,21.20
2019-04-03T12:06:16.368Z,21.20
2019-04-03T12:09:20.851Z,21.30
2019-04-03T12:12:25.452Z,21.30
2019-04-03T12:15:30.066Z,21.50
2019-04-03T12:18:37.506Z,21.80
2019-04-03T12:21:42.335Z,21.90
2019-04-03T12:24:47.361Z,21.90
2019-04-03T12:27:51.798Z,22.00
2019-04-03T12:30:57.083Z,21.90
2019-04-03T12:34:05.433Z,21.80
2019-04-03T12:37:07.504Z,21.70
2019-04-03T12:40:12.806Z,21.80
2019-04-03T12:43:17.075Z,21.70
2019-04-03T12:46:37.335Z,21.80
2019-04-03T12:49:41.797Z,21.70
2019-04-03T12:52:47.146Z,21.50
2019-04-03T12:55:51.436Z,21.40
2019-04-03T12:58:56.444Z,21.20
2019-04-03T13:02:00.692Z,21.00
2019-04-03T13:05:07.267Z,21.00
2019-04-03T13:08:12.533Z,21.10
2019-04-03T13:11:19.119Z,21.30
2019-04-03T13:14:26.442Z,21.30
2019-04-03T13:17:30.085Z,21.10
2019-04-03T13:20:36.650Z,21.10
2019-04-03T13:23:40.968Z,21.00
2019-04-03T13:26:45.286Z,20.90
2019-04-03T13:29:51.397Z,20.70
2019-04-03T13:33:05.084Z,20.70
2019-04-03T13:36:16.915Z,20.70
2019-04-03T13:39:21.442Z,20.60
2019-04-03T13:42:25.789Z,20.70
2019-04-03T13:45:32.705Z,20.70
2019-04-03T13:48:37.699Z,20.80
2019-04-03T13:51:48.995Z,20.80
2019-04-03T13:55:02.357Z,20.90
2019-04-03T13:58:07.090Z,20.90
2019-04-03T14:01:27.654Z,21.00
2019-04-03T14:04:39.338Z,20.90
2019-04-03T14:07:46.748Z,21.00
2019-04-03T14:10:51.933Z,20.90
2019-04-03T14:13:56.598Z,20.90
2019-04-03T14:17:00.985Z,20.80
2019-04-03T14:20:13.029Z,20.80
2019-04-03T14:23:18.035Z,20.80
2019-04-03T14:26:22.482Z,20.90
2019-04-03T14:29:30.866Z,20.80
2019-04-03T14:32:38.408Z,20.80
2019-04-03T14:35:50.504Z,20.60
2019-04-03T14:38:49.109Z,20.60
2019-04-03T14:41:54.759Z,20.60
2019-04-03T14:44:59.478Z,20.60
2019-04-03T14:48:04.020Z,20.40
2019-04-03T14:51:10.928Z,20.40
2019-04-03T14:54:14.533Z,20.30
2019-04-03T14:57:22.464Z,20.40
2019-04-03T15:00:30.036Z,20.20
2019-04-03T15:03:33.525Z,20.10
2019-04-03T15:06:37.058Z,20.10
2019-04-03T15:09:41.382Z,20.00
2019-04-03T15:12:45.798Z,19.90
2019-04-03T15:15:50.116Z,19.90
2019-04-03T15:18:54.746Z,19.80
2019-04-03T15:22:01.716Z,19.80
2019-04-03T15:25:05.345Z,19.70
2019-04-03T15:28:09.664Z,19.60
2019-04-03T15:31:14.934Z,19.60
2019-04-03T15:34:19.424Z,19.60
2019-04-03T15:37:24.223Z,19.50
2019-04-03T15:40:28.572Z,19.50
2019-04-03T15:43:32.897Z,19.30
2019-04-03T15:46:37.332Z,19.30
2019-04-03T15:49:41.995Z,19.30
2019-04-03T15:52:49.293Z,19.20
2019-04-03T15:55:52.865Z,19.20
2019-04-03T15:58:58.449Z,19.00
2019-04-03T16:02:03.663Z,19.00
2019-04-03T16:05:08.449Z,19.00
2019-04-03T16:08:13.586Z,18.80
2019-04-03T16:11:18.377Z,18.60
2019-04-03T16:14:22.770Z,18.70
2019-04-03T16:17:27.070Z,18.60
2019-04-03T16:20:31.413Z,18.60
2019-04-03T16:23:36.873Z,18.50
2019-04-03T16:26:41.815Z,18.40
2019-04-03T16:29:46.931Z,18.20
2019-04-03T16:32:51.932Z,18.20
2019-04-03T16:35:56.452Z,18.20
2019-04-03T16:39:01.979Z,18.10
2019-04-03T16:42:07.282Z,18.10
2019-04-03T16:45:12.598Z,18.00
2019-04-03T16:48:18.136Z,18.00
2019-04-03T16:51:22.981Z,17.80
2019-04-03T16:54:29.099Z,17.80
2019-04-03T16:57:33.387Z,17.60
2019-04-03T17:00:38.072Z,17.60
2019-04-03T17:03:43.767Z,17.60
2019-04-03T17:06:51.164Z,17.50
2019-04-03T17:09:55.558Z,17.50
2019-04-03T17:13:00.092Z,17.40
2019-04-03T17:16:04.899Z,17.40
2019-04-03T17:19:10.661Z,17.20
2019-04-03T17:22:14.985Z,17.20
2019-04-03T17:25:19.594Z,17.10
2019-04-03T17:28:26.284Z,17.10
2019-04-03T17:31:30.167Z,17.00
2019-04-03T17:34:37.102Z,16.90
2019-04-03T17:37:40.441Z,16.90
2019-04-03T17:40:44.691Z,16.90
2019-04-03T17:43:49.010Z,16.70
2019-04-03T17:46:53.358Z,16.60
2019-04-03T17:49:59.189Z,16.60
2019-04-03T17:53:06.316Z,16.50
2019-04-03T17:56:12.390Z,16.50
2019-04-03T17:59:18.086Z,16.40
2019-04-03T18:02:22.798Z,16.30
2019-04-03T18:05:28.393Z,16.20
2019-04-03T18:08:33.196Z,16.20
2019-04-03T18:11:38.363Z,16.20
2019-04-03T18:14:42.690Z,16.00
2019-04-03T18:17:47.032Z,16.00
2019-04-03T18:20:51.337Z,15.90
2019-04-03T18:23:55.709Z,15.80
2019-04-03T18:27:02.213Z,15.80
2019-04-03T18:30:11.787Z,15.80
2019-04-03T18:33:17.057Z,15.70
2019-04-03T18:36:21.960Z,15.60
2019-04-03T18:39:27.418Z,15.70
2019-04-03T18:42:31.823Z,15.60
2019-04-03T18:45:37.944Z,15.60
2019-04-03T18:48:52.803Z,15.60
2019-04-03T18:51:48.410Z,15.50
2019-04-03T18:54:52.798Z,15.50
2019-04-03T18:57:57.191Z,15.50
2019-04-03T19:01:01.777Z,15.40
2019-04-03T19:04:07.221Z,15.30
2019-04-03T19:07:15.228Z,15.30
2019-04-03T19:10:18.838Z,15.20
2019-04-03T19:13:23.245Z,15.20
2019-04-03T19:16:29.674Z,15.10
2019-04-03T19:19:34.122Z,15.10
2019-04-03T19:22:38.528Z,15.00
2019-04-03T19:25:42.852Z,15.00
2019-04-03T19:28:48.489Z,15.00
2019-04-03T19:31:53.075Z,14.90
2019-04-03T19:34:58.022Z,14.90
2019-04-03T19:38:04.589Z,14.80
2019-04-03T19:41:11.568Z,14.70
2019-04-03T19:44:16.176Z,14.70
2019-04-03T19:47:22.831Z,14.70
2019-04-03T19:50:27.630Z,14.60
2019-04-03T19:53:35.584Z,14.50
2019-04-03T19:56:38.823Z,14.60
2019-04-03T19:59:43.183Z,14.50
2019-04-03T20:02:47.984Z,14.60
2019-04-03T20:05:54.947Z,14.50
2019-04-03T20:08:59.022Z,14.50
2019-04-03T20:12:06.821Z,14.50
2019-04-03T20:15:12.601Z,14.50
2019-04-03T20:18:16.982Z,14.50
2019-04-03T20:21:21.696Z,14.40
2019-04-03T20:24:26.115Z,14.40
2019-04-03T20:27:30.523Z,14.30
2019-04-03T20:30:35.103Z,14.30
2019-04-03T20:33:42.147Z,14.30
2019-04-03T20:36:45.920Z,14.30
2019-04-03T20:39:50.647Z,14.20
2019-04-03T20:42:54.961Z,14.20
2019-04-03T20:46:00.690Z,14.00
2019-04-03T20:49:05.009Z,14.10
2019-04-03T20:52:11.537Z,14.00
2019-04-03T20:55:15.742Z,13.80
2019-04-03T20:58:20.065Z,14.00
2019-04-03T21:01:24.391Z,13.80
2019-04-03T21:04:28.838Z,13.70
2019-04-03T21:07:33.967Z,13.60
2019-04-03T21:10:38.695Z,13.60
2019-04-03T21:13:43.678Z,13.50
2019-04-03T21:16:48.464Z,13.60
2019-04-03T21:19:53.309Z,13.50
2019-04-03T21:23:02.926Z,13.50
2019-04-03T21:26:07.484Z,13.50
2019-04-03T21:29:12.972Z,13.40
2019-04-03T21:32:17.692Z,13.30
2019-04-03T21:35:22.031Z,13.20
2019-04-03T21:38:26.699Z,13.20
2019-04-03T21:41:31.466Z,13.20
2019-04-03T21:44:37.472Z,13.00
2019-04-03T21:47:42.735Z,13.00
2019-04-03T21:50:47.912Z,13.00
2019-04-03T21:53:55.831Z,13.00
2019-04-03T21:56:59.725Z,13.00
2019-04-03T22:00:06.215Z,12.90
2019-04-03T22:03:11.537Z,12.80
2019-04-03T22:06:16.032Z,12.80
2019-04-03T22:09:20.433Z,12.90
2019-04-03T22:12:25.092Z,12.80
2019-04-03T22:15:29.409Z,12.70
2019-04-03T22:18:34.837Z,12.70
2019-04-03T22:21:39.566Z,12.80
2019-04-03T22:24:46.027Z,12.80
2019-04-03T22:27:50.731Z,12.70
2019-04-03T22:30:55.077Z,12.70
2019-04-03T22:33:59.811Z,12.60
2019-04-03T22:37:04.626Z,12.60
2019-04-03T22:40:10.704Z,12.70
2019-04-03T22:43:16.204Z,12.60
2019-04-03T22:46:22.100Z,12.70
2019-04-03T22:49:27.005Z,12.60
2019-04-03T22:52:31.412Z,12.60
2019-04-03T22:55:35.740Z,12.60
2019-04-03T22:58:40.732Z,12.60
2019-04-03T23:01:45.094Z,12.60
2019-04-03T23:04:49.511Z,12.60
2019-04-03T23:07:53.889Z,12.60
2019-04-03T23:11:01.318Z,12.50
2019-04-03T23:14:07.448Z,12.40
2019-04-03T23:17:13.769Z,12.40
2019-04-03T23:20:20.073Z,12.40
2019-04-03T23:23:27.581Z,12.30
2019-04-03T23:26:32.263Z,12.30
2019-04-03T23:29:37.249Z,12.30
2019-04-03T23:32:41.577Z,12.20
2019-04-03T23:35:47.141Z,12.10
2019-04-03T23:38:52.161Z,12.10
2019-04-03T23:41:56.540Z,12.10
2019-04-03T23:45:00.926Z,12.00
2019-04-03T23:48:05.177Z,12.00
2019-04-03T23:51:10.722Z,11.90
2019-04-03T23:54:15.639Z,11.90
2019-04-03T23:57:20.268Z,11.90
